Track Ильченко Даниил

Time Latitude Longitude Accuracy (66% radius in meters) Altitude (meters) Speed (km/hour) Bearing (degrees) Battery (%) GPS flag
06:41:56 57.197653 60.119606 0 0 0 0 1 delete
06:41:49 57.197813 60.119807 0 0 0 0 1 delete
06:41:41 57.197951 60.120023 0 0 0 0 1 delete
06:41:36 57.198097 60.120028 0 0 0 0 1 delete
06:41:27 57.198256 60.120182 0 0 0 0 1 delete
06:41:23 57.198290 60.120247 0 0 0 0 1 delete
06:41:20 57.198319 60.120301 0 0 0 0 1 delete
06:41:15 57.198365 60.120398 0 0 0 0 1 delete
06:41:12 57.198405 60.120443 0 0 0 0 1 delete
06:40:58 57.198572 60.120603 0 0 0 0 1 delete
06:40:42 57.198743 60.120748 0 0 0 0 1 delete
06:40:36 57.198811 60.120843 0 0 0 0 1 delete
06:40:34 57.198812 60.120913 0 0 0 0 1 delete
06:40:25 57.198810 60.121238 0 0 0 0 1 delete
06:40:17 57.198925 60.121515 0 0 0 0 1 delete
06:40:11 57.199089 60.121657 0 0 0 0 1 delete
06:40:05 57.199289 60.121729 0 0 0 0 1 delete
06:40:02 57.199411 60.121745 0 0 0 0 1 delete
06:39:59 57.199569 60.121737 0 0 0 0 1 delete
06:39:57 57.199698 60.121691 0 0 0 0 1 delete
06:39:54 57.199931 60.121642 0 0 0 0 1 delete
06:39:52 57.200127 60.121601 0 0 0 0 1 delete
06:39:50 57.200355 60.121499 0 0 0 0 1 delete
06:39:48 57.200569 60.121417 0 0 0 0 1 delete
06:39:46 57.200773 60.121374 0 0 0 0 1 delete
06:39:45 57.200874 60.121384 0 0 0 0 1 delete
06:39:44 57.200973 60.121403 0 0 0 0 1 delete
06:39:42 57.201174 60.121398 0 0 0 0 1 delete
06:39:40 57.201375 60.121313 0 0 0 0 1 delete
06:39:37 57.201621 60.121102 0 0 0 0 1 delete
06:39:34 57.201790 60.120914 0 0 0 0 1 delete
06:39:30 57.201960 60.120756 0 0 0 0 1 delete
06:39:29 57.202007 60.120719 0 0 0 0 1 delete
06:39:25 57.202219 60.120550 0 0 0 0 1 delete
06:39:21 57.202421 60.120369 0 0 0 0 1 delete
06:39:17 57.202574 60.120189 0 0 0 0 1 delete
06:39:16 57.202617 60.120149 0 0 0 0 1 delete
06:39:12 57.202810 60.119980 0 0 0 0 1 delete
06:39:09 57.202966 60.119829 0 0 0 0 1 delete
06:39:08 57.203020 60.119777 0 0 0 0 1 delete
06:39:05 57.203180 60.119627 0 0 0 0 1 delete
06:38:52 57.203357 60.119457 0 0 0 0 1 delete